createdAt,value
2019-05-17T00:00:23.117Z,27.50
2019-05-17T00:01:28.457Z,25.93
2019-05-17T00:02:34.130Z,26.20
2019-05-17T00:03:39.427Z,27.33
2019-05-17T00:04:46.987Z,24.93
2019-05-17T00:05:52.287Z,26.53
2019-05-17T00:06:58.043Z,26.20
2019-05-17T00:08:03.165Z,25.17
2019-05-17T00:09:08.980Z,26.47
2019-05-17T00:10:17.017Z,25.50
2019-05-17T00:11:22.020Z,26.07
2019-05-17T00:12:29.953Z,27.13
2019-05-17T00:13:38.457Z,25.47
2019-05-17T00:14:42.592Z,27.93
2019-05-17T00:15:48.426Z,26.53
2019-05-17T00:16:53.599Z,24.50
2019-05-17T00:17:59.344Z,26.20
2019-05-17T00:19:07.445Z,28.57
2019-05-17T00:20:12.934Z,26.90
2019-05-17T00:21:18.095Z,27.27
2019-05-17T00:22:23.775Z,28.27
2019-05-17T00:23:28.975Z,27.00
2019-05-17T00:24:36.928Z,28.33
2019-05-17T00:25:41.791Z,26.80
2019-05-17T00:26:48.068Z,27.27
2019-05-17T00:27:56.330Z,24.87
2019-05-17T00:29:01.888Z,28.37
2019-05-17T00:30:09.665Z,26.37
2019-05-17T00:31:17.185Z,27.47
2019-05-17T00:32:22.232Z,25.53
2019-05-17T00:33:28.127Z,27.63
2019-05-17T00:34:33.342Z,28.13
2019-05-17T00:35:39.038Z,28.00
2019-05-17T00:36:46.766Z,27.10
2019-05-17T00:37:51.671Z,26.27
2019-05-17T00:38:56.955Z,27.73
2019-05-17T00:40:02.762Z,27.93
2019-05-17T00:41:08.107Z,29.40
2019-05-17T00:42:13.964Z,27.30
2019-05-17T00:43:19.225Z,27.17
2019-05-17T00:44:27.083Z,27.77
2019-05-17T00:45:31.918Z,27.67
2019-05-17T00:46:37.759Z,29.17
2019-05-17T00:47:43.075Z,28.00
2019-05-17T00:48:48.915Z,28.97
2019-05-17T00:49:54.173Z,27.60
2019-05-17T00:51:01.864Z,27.50
2019-05-17T00:52:07.328Z,29.23
2019-05-17T00:53:16.263Z,30.33
2019-05-17T00:54:22.197Z,27.50
2019-05-17T00:55:27.994Z,28.33
2019-05-17T00:56:33.351Z,28.70
2019-05-17T00:57:39.167Z,27.93
2019-05-17T00:58:44.361Z,25.33
2019-05-17T00:59:50.228Z,28.43
2019-05-17T01:00:57.091Z,30.50
2019-05-17T01:02:03.018Z,28.87
2019-05-17T01:03:08.248Z,29.00
2019-05-17T01:04:13.993Z,27.53
2019-05-17T01:05:19.181Z,26.20
2019-05-17T01:06:24.885Z,27.47
2019-05-17T01:07:30.098Z,28.93
2019-05-17T01:08:37.337Z,28.57
2019-05-17T01:09:43.804Z,29.87
2019-05-17T01:10:49.706Z,28.43
2019-05-17T01:11:56.638Z,27.47
2019-05-17T01:13:02.463Z,29.10
2019-05-17T01:14:07.680Z,29.20
2019-05-17T01:15:14.044Z,26.40
2019-05-17T01:16:19.206Z,28.53
2019-05-17T01:17:26.954Z,28.60
2019-05-17T01:18:31.714Z,29.50
2019-05-17T01:19:37.606Z,27.70
2019-05-17T01:20:42.783Z,27.67
2019-05-17T01:21:48.541Z,27.07
2019-05-17T01:22:53.711Z,28.63
2019-05-17T01:23:59.453Z,28.33
2019-05-17T01:25:06.361Z,27.87
2019-05-17T01:26:12.344Z,28.80
2019-05-17T01:27:17.524Z,29.27
2019-05-17T01:28:23.337Z,27.27
2019-05-17T01:29:28.591Z,28.60
2019-05-17T01:30:34.567Z,29.33
2019-05-17T01:31:39.816Z,28.83
2019-05-17T01:32:46.423Z,28.00
2019-05-17T01:33:51.933Z,28.33
2019-05-17T01:34:57.795Z,26.47
2019-05-17T01:36:03.077Z,27.07
2019-05-17T01:37:08.795Z,27.80
2019-05-17T01:38:14.059Z,26.57
2019-05-17T01:39:21.539Z,28.03
2019-05-17T01:40:26.965Z,26.80
2019-05-17T01:41:32.734Z,27.60
2019-05-17T01:42:37.894Z,27.60
2019-05-17T01:43:43.515Z,25.87
2019-05-17T01:44:48.707Z,28.10
2019-05-17T01:45:54.378Z,27.13
2019-05-17T01:46:59.659Z,27.30
2019-05-17T01:48:07.416Z,27.23
2019-05-17T01:49:12.260Z,26.93
2019-05-17T01:50:18.144Z,27.10
2019-05-17T01:51:23.363Z,27.67
2019-05-17T01:52:29.084Z,27.20
2019-05-17T01:53:36.319Z,27.50
2019-05-17T01:54:41.806Z,28.60
2019-05-17T01:55:46.912Z,27.23
2019-05-17T01:56:53.852Z,26.67
2019-05-17T01:57:58.942Z,27.73
2019-05-17T01:59:06.783Z,27.13
2019-05-17T02:00:13.322Z,27.23
2019-05-17T02:01:19.056Z,26.87
2019-05-17T02:02:29.589Z,27.03
2019-05-17T02:03:37.529Z,26.57
2019-05-17T02:04:42.439Z,26.07
2019-05-17T02:05:48.237Z,27.83
2019-05-17T02:06:54.110Z,25.37
2019-05-17T02:07:59.853Z,26.70
2019-05-17T02:09:06.411Z,25.50
2019-05-17T02:10:13.777Z,27.97
2019-05-17T02:11:18.893Z,26.97
2019-05-17T02:12:26.608Z,25.83
2019-05-17T02:13:31.516Z,26.37
2019-05-17T02:14:37.574Z,25.97
2019-05-17T02:15:42.864Z,26.77
2019-05-17T02:16:48.657Z,28.20
2019-05-17T02:17:53.901Z,26.47
2019-05-17T02:18:59.695Z,25.53
2019-05-17T02:20:06.433Z,27.53
2019-05-17T02:21:12.270Z,26.87
2019-05-17T02:22:17.507Z,27.13
2019-05-17T02:23:23.227Z,25.90
2019-05-17T02:24:28.370Z,27.97
2019-05-17T02:25:36.670Z,27.27
2019-05-17T02:26:41.088Z,25.73
2019-05-17T02:27:46.780Z,28.10
2019-05-17T02:28:52.091Z,27.07
2019-05-17T02:29:57.761Z,25.97
2019-05-17T02:31:03.851Z,26.93
2019-05-17T02:32:12.611Z,26.90
2019-05-17T02:33:16.459Z,25.50
2019-05-17T02:34:23.260Z,27.50
2019-05-17T02:35:28.597Z,26.00
2019-05-17T02:36:34.487Z,26.63
2019-05-17T02:37:42.934Z,25.23
2019-05-17T02:38:47.130Z,26.33
2019-05-17T02:40:02.082Z,25.67
2019-05-17T02:41:02.909Z,26.77
2019-05-17T02:42:06.622Z,26.30
2019-05-17T02:43:13.272Z,26.67
2019-05-17T02:44:18.686Z,24.60
2019-05-17T02:45:24.478Z,25.97
2019-05-17T02:46:29.676Z,26.63
2019-05-17T02:47:35.429Z,26.27
2019-05-17T02:48:42.754Z,25.67
2019-05-17T02:49:48.043Z,24.07
2019-05-17T02:50:53.486Z,24.37
2019-05-17T02:51:59.274Z,26.00
2019-05-17T02:53:04.998Z,25.03
2019-05-17T02:54:13.275Z,24.63
2019-05-17T02:55:23.077Z,26.00
2019-05-17T02:56:25.157Z,24.57
2019-05-17T02:57:30.400Z,25.07
2019-05-17T02:58:36.193Z,24.37
2019-05-17T02:59:43.284Z,25.07
2019-05-17T03:00:48.853Z,24.67
2019-05-17T03:01:54.134Z,22.13
2019-05-17T03:03:03.032Z,22.57
2019-05-17T03:04:06.732Z,24.13
2019-05-17T03:05:13.179Z,23.03
2019-05-17T03:06:18.382Z,23.17
2019-05-17T03:07:26.340Z,22.20
2019-05-17T03:08:34.091Z,23.10
2019-05-17T03:09:39.117Z,22.80
2019-05-17T03:10:44.399Z,23.53
2019-05-17T03:11:52.905Z,24.97
2019-05-17T03:12:57.035Z,21.93
2019-05-17T03:14:04.030Z,21.97
2019-05-17T03:15:12.634Z,21.90
2019-05-17T03:16:17.481Z,22.13
2019-05-17T03:17:23.100Z,23.17
2019-05-17T03:18:29.050Z,22.07
2019-05-17T03:19:34.285Z,20.87
2019-05-17T03:20:42.923Z,23.17
2019-05-17T03:21:47.019Z,20.80
2019-05-17T03:22:52.899Z,22.07
2019-05-17T03:23:58.087Z,21.63
2019-05-17T03:25:03.945Z,21.67
2019-05-17T03:26:12.772Z,20.90
2019-05-17T03:27:16.584Z,21.73
2019-05-17T03:28:23.640Z,20.20
2019-05-17T03:29:29.074Z,22.20
2019-05-17T03:30:37.196Z,21.93
2019-05-17T03:31:50.491Z,22.37
2019-05-17T03:32:55.464Z,21.60
2019-05-17T03:33:57.897Z,21.27
2019-05-17T03:35:07.007Z,21.20
2019-05-17T03:36:16.046Z,22.53
2019-05-17T03:37:17.644Z,22.73
2019-05-17T03:38:23.504Z,22.63
2019-05-17T03:39:28.760Z,22.27
2019-05-17T03:41:03.567Z,22.83
2019-05-17T03:41:42.937Z,23.30
2019-05-17T03:42:48.778Z,22.20
2019-05-17T03:43:54.015Z,22.53
2019-05-17T03:45:02.928Z,22.80
2019-05-17T03:46:07.350Z,23.27
2019-05-17T03:47:15.887Z,22.90
2019-05-17T03:48:22.319Z,22.63
2019-05-17T03:49:28.708Z,22.13
2019-05-17T03:50:34.055Z,22.90
2019-05-17T03:51:42.668Z,22.87
2019-05-17T03:52:46.757Z,24.03
2019-05-17T03:53:53.229Z,23.00
2019-05-17T03:54:58.507Z,23.23
2019-05-17T03:56:04.602Z,23.93
2019-05-17T03:57:13.236Z,22.50
2019-05-17T03:58:17.366Z,23.57
2019-05-17T03:59:24.291Z,23.60
2019-05-17T04:00:35.215Z,22.43
2019-05-17T04:01:39.329Z,23.73
2019-05-17T04:02:45.281Z,24.13
2019-05-17T04:03:52.898Z,23.87
2019-05-17T04:04:58.013Z,23.33
2019-05-17T04:06:04.044Z,23.70
2019-05-17T04:07:12.753Z,25.27
2019-05-17T04:08:22.677Z,24.27
2019-05-17T04:09:27.243Z,25.43
2019-05-17T04:10:33.527Z,22.67
2019-05-17T04:11:42.971Z,23.83
2019-05-17T04:12:47.479Z,23.30
2019-05-17T04:13:53.987Z,22.73
2019-05-17T04:15:02.896Z,22.10
2019-05-17T04:16:09.139Z,22.80
2019-05-17T04:17:13.793Z,23.17
2019-05-17T04:18:19.595Z,22.73
2019-05-17T04:19:24.783Z,23.63
2019-05-17T04:20:33.142Z,24.10
2019-05-17T04:21:37.440Z,22.93
2019-05-17T04:22:44.346Z,21.50
2019-05-17T04:23:53.581Z,21.03
2019-05-17T04:24:57.502Z,21.27
2019-05-17T04:26:04.318Z,22.63
2019-05-17T04:27:13.407Z,22.60
2019-05-17T04:28:17.063Z,23.47
2019-05-17T04:29:22.927Z,22.23
2019-05-17T04:30:28.021Z,22.90
2019-05-17T04:31:34.809Z,23.23
2019-05-17T04:32:43.602Z,22.67
2019-05-17T04:33:47.939Z,22.20
2019-05-17T04:34:54.325Z,21.80
2019-05-17T04:36:02.482Z,21.87
2019-05-17T04:37:07.094Z,21.13
2019-05-17T04:38:13.014Z,21.47
2019-05-17T04:39:18.291Z,21.73
2019-05-17T04:40:24.161Z,21.90
2019-05-17T04:41:41.479Z,21.80
2019-05-17T04:42:36.787Z,21.20
2019-05-17T04:43:42.561Z,21.07
2019-05-17T04:44:48.476Z,21.53
2019-05-17T04:45:53.947Z,19.77
2019-05-17T04:47:02.755Z,20.40
2019-05-17T04:48:06.668Z,20.73
2019-05-17T04:49:13.847Z,19.70
2019-05-17T04:50:19.344Z,21.27
2019-05-17T04:51:25.137Z,20.30
2019-05-17T04:52:33.338Z,19.87
2019-05-17T04:53:37.670Z,19.77
2019-05-17T04:54:44.191Z,19.97
2019-05-17T04:55:49.914Z,19.83
2019-05-17T04:56:55.158Z,19.53
2019-05-17T04:58:03.846Z,19.30
2019-05-17T04:59:07.788Z,19.07
2019-05-17T05:00:14.287Z,18.00
2019-05-17T05:01:19.557Z,19.07
2019-05-17T05:02:25.255Z,18.83
2019-05-17T05:03:32.588Z,18.13
2019-05-17T05:04:38.619Z,18.50
2019-05-17T05:05:44.127Z,17.90
2019-05-17T05:06:52.458Z,17.47
2019-05-17T05:07:57.353Z,17.77
2019-05-17T05:09:03.009Z,16.53
2019-05-17T05:10:08.649Z,17.13
2019-05-17T05:11:14.698Z,17.27
2019-05-17T05:12:22.653Z,17.20
2019-05-17T05:13:27.504Z,18.20
2019-05-17T05:14:32.996Z,17.00
2019-05-17T05:15:44.348Z,16.70
2019-05-17T05:16:52.758Z,17.37
2019-05-17T05:17:57.305Z,17.00
2019-05-17T05:19:03.131Z,16.37
2019-05-17T05:20:12.965Z,16.77
2019-05-17T05:21:17.296Z,16.47
2019-05-17T05:22:23.261Z,16.50
2019-05-17T05:23:28.461Z,16.20
2019-05-17T05:24:34.191Z,17.03
2019-05-17T05:25:39.387Z,16.13
2019-05-17T05:26:45.333Z,17.00
2019-05-17T05:27:51.673Z,16.63
2019-05-17T05:28:57.507Z,17.10
2019-05-17T05:30:03.762Z,16.90
2019-05-17T05:31:09.636Z,17.53
2019-05-17T05:32:14.881Z,17.40
2019-05-17T05:33:22.187Z,16.47
2019-05-17T05:34:27.675Z,17.43
2019-05-17T05:35:33.497Z,17.07
2019-05-17T05:36:38.779Z,16.37
2019-05-17T05:37:44.594Z,17.07
2019-05-17T05:38:51.536Z,16.63
2019-05-17T05:39:57.555Z,16.90
2019-05-17T05:41:02.868Z,17.30
2019-05-17T05:42:11.613Z,17.30
2019-05-17T05:43:15.681Z,17.80
2019-05-17T05:44:21.598Z,18.00
2019-05-17T05:45:26.733Z,16.87
2019-05-17T05:46:32.596Z,18.60
2019-05-17T05:47:37.838Z,17.60
2019-05-17T05:48:43.609Z,17.67
2019-05-17T05:49:48.951Z,18.27
2019-05-17T05:50:54.659Z,17.53
2019-05-17T05:52:01.782Z,17.33
2019-05-17T05:53:07.425Z,18.20
2019-05-17T05:54:12.671Z,17.63
2019-05-17T05:55:18.781Z,17.20
2019-05-17T05:56:23.909Z,18.20
2019-05-17T05:57:32.051Z,17.07
2019-05-17T05:58:36.663Z,17.37
2019-05-17T05:59:42.568Z,17.50
2019-05-17T06:00:47.995Z,16.53
2019-05-17T06:01:53.742Z,17.47
2019-05-17T06:02:58.916Z,17.50
2019-05-17T06:04:04.712Z,17.47
2019-05-17T06:05:12.832Z,16.63
2019-05-17T06:06:17.621Z,16.47
2019-05-17T06:07:22.831Z,15.77
2019-05-17T06:08:28.663Z,16.97
2019-05-17T06:09:34.136Z,16.90
2019-05-17T06:10:42.704Z,14.43
2019-05-17T06:11:48.184Z,15.00
2019-05-17T06:12:53.974Z,13.97
2019-05-17T06:14:01.439Z,15.20
2019-05-17T06:15:07.348Z,14.47
2019-05-17T06:16:12.632Z,13.63
2019-05-17T06:17:21.615Z,13.50
2019-05-17T06:18:26.480Z,12.17
2019-05-17T06:19:32.360Z,12.40
2019-05-17T06:20:37.701Z,12.43
2019-05-17T06:21:44.611Z,11.13
2019-05-17T06:22:51.807Z,10.63
2019-05-17T06:23:57.453Z,11.07
2019-05-17T06:25:03.736Z,11.60
2019-05-17T06:26:12.242Z,10.13
2019-05-17T06:27:16.849Z,11.10
2019-05-17T06:28:22.657Z,11.03
2019-05-17T06:29:27.959Z,13.07
2019-05-17T06:30:33.750Z,10.87
2019-05-17T06:31:39.044Z,10.33
2019-05-17T06:32:44.898Z,10.27
2019-05-17T06:33:52.360Z,11.20
2019-05-17T06:34:57.633Z,10.57
2019-05-17T06:36:03.036Z,13.47
2019-05-17T06:37:08.834Z,10.40
2019-05-17T06:38:14.107Z,11.33
2019-05-17T06:39:22.262Z,10.20
2019-05-17T06:40:27.035Z,11.23
2019-05-17T06:41:32.825Z,11.13
2019-05-17T06:42:41.384Z,10.27
2019-05-17T06:43:45.474Z,10.90
2019-05-17T06:44:52.375Z,10.70
2019-05-17T06:45:58.187Z,11.23
2019-05-17T06:47:03.472Z,10.47
2019-05-17T06:48:11.469Z,10.63
2019-05-17T06:49:17.213Z,10.30
2019-05-17T06:50:23.655Z,10.87
2019-05-17T06:51:28.882Z,11.23
2019-05-17T06:52:34.661Z,9.90
2019-05-17T06:53:39.966Z,10.17
2019-05-17T06:54:45.844Z,10.63
2019-05-17T06:55:53.442Z,10.13
2019-05-17T06:56:59.533Z,10.23
2019-05-17T06:58:04.931Z,10.23
2019-05-17T06:59:10.760Z,10.03
2019-05-17T07:00:20.666Z,10.27
2019-05-17T07:01:24.246Z,10.40
2019-05-17T07:02:30.868Z,9.93
2019-05-17T07:03:36.912Z,10.87
2019-05-17T07:04:42.202Z,10.37
2019-05-17T07:05:50.875Z,11.33
2019-05-17T07:07:13.764Z,10.70
2019-05-17T07:08:20.138Z,9.93
2019-05-17T07:09:27.113Z,10.10
2019-05-17T07:10:32.251Z,10.03
2019-05-17T07:11:39.835Z,10.33
2019-05-17T07:12:55.956Z,9.27
2019-05-17T07:13:52.698Z,10.77
2019-05-17T07:14:58.520Z,9.63
2019-05-17T07:16:05.561Z,10.03
2019-05-17T07:17:10.875Z,10.10
2019-05-17T07:18:16.776Z,9.57
2019-05-17T07:19:22.723Z,9.90
2019-05-17T07:20:29.940Z,10.27
2019-05-17T07:21:35.309Z,9.80
2019-05-17T07:22:41.196Z,9.80
2019-05-17T07:23:46.482Z,9.40
2019-05-17T07:24:52.342Z,9.57
2019-05-17T07:25:59.619Z,10.13
2019-05-17T07:27:05.077Z,10.50
2019-05-17T07:28:11.346Z,9.93
2019-05-17T07:29:19.276Z,10.47
2019-05-17T07:30:24.277Z,10.23
2019-05-17T07:31:30.026Z,10.33
2019-05-17T07:32:35.331Z,9.10
2019-05-17T07:33:41.196Z,9.70
2019-05-17T07:34:46.683Z,9.40
2019-05-17T07:35:52.389Z,10.40
2019-05-17T07:36:59.648Z,10.17
2019-05-17T07:38:05.054Z,10.33
2019-05-17T07:39:10.833Z,10.07
2019-05-17T07:40:17.091Z,10.30
2019-05-17T07:41:22.421Z,10.20
2019-05-17T07:42:29.851Z,10.23
2019-05-17T07:43:35.268Z,10.20
2019-05-17T07:44:43.850Z,10.10
2019-05-17T07:45:49.625Z,9.63
2019-05-17T07:46:55.583Z,9.03
2019-05-17T07:48:00.878Z,9.13
2019-05-17T07:49:06.734Z,9.53
2019-05-17T07:50:12.219Z,9.50
2019-05-17T07:51:19.477Z,8.90
2019-05-17T07:52:24.873Z,8.40
2019-05-17T07:53:30.904Z,8.70
2019-05-17T07:54:36.334Z,8.60
2019-05-17T07:55:42.223Z,8.77
2019-05-17T07:56:47.559Z,8.07
2019-05-17T07:57:53.400Z,7.87
2019-05-17T07:59:00.094Z,7.53
2019-05-17T08:00:06.490Z,7.23
2019-05-17T08:01:11.767Z,7.60
2019-05-17T08:02:19.723Z,6.83
2019-05-17T08:03:25.070Z,7.50
2019-05-17T08:04:31.162Z,7.40
2019-05-17T08:05:36.395Z,7.07
2019-05-17T08:06:42.209Z,7.97
2019-05-17T08:07:49.853Z,7.93
2019-05-17T08:08:54.854Z,7.93
2019-05-17T08:10:00.417Z,8.10
2019-05-17T08:11:06.237Z,8.13
2019-05-17T08:12:11.492Z,8.20
2019-05-17T08:13:27.366Z,7.83
2019-05-17T08:14:30.026Z,7.90
2019-05-17T08:15:32.453Z,7.47
2019-05-17T08:16:39.494Z,8.07
2019-05-17T08:17:45.108Z,8.27
2019-05-17T08:18:50.345Z,7.50
2019-05-17T08:19:56.137Z,7.93
2019-05-17T08:21:01.482Z,7.67
2019-05-17T08:22:09.633Z,8.30
2019-05-17T08:23:14.205Z,8.00
2019-05-17T08:24:19.842Z,8.23
2019-05-17T08:25:24.964Z,7.30
2019-05-17T08:26:30.721Z,8.73
2019-05-17T08:27:35.911Z,8.17
2019-05-17T08:28:41.653Z,9.37
2019-05-17T08:29:46.857Z,9.20
2019-05-17T08:30:52.676Z,8.93
2019-05-17T08:31:57.819Z,8.83
2019-05-17T08:33:04.235Z,9.23
2019-05-17T08:34:10.340Z,10.00
2019-05-17T08:35:16.306Z,9.10
2019-05-17T08:36:21.403Z,9.50
2019-05-17T08:37:29.924Z,9.20
2019-05-17T08:38:35.064Z,10.03
2019-05-17T08:39:40.901Z,9.27
2019-05-17T08:40:46.066Z,9.27
2019-05-17T08:41:51.861Z,10.23
2019-05-17T08:42:57.151Z,10.37
2019-05-17T08:44:02.962Z,9.87
2019-05-17T08:45:09.689Z,10.90
2019-05-17T08:46:15.697Z,9.67
2019-05-17T08:47:21.083Z,11.07
2019-05-17T08:48:29.344Z,10.63
2019-05-17T08:49:33.934Z,10.30
2019-05-17T08:50:40.277Z,10.30
2019-05-17T08:51:45.768Z,10.10
2019-05-17T08:52:51.544Z,9.83
2019-05-17T08:53:56.829Z,10.90
2019-05-17T08:55:02.651Z,9.83
2019-05-17T08:56:10.032Z,10.33
2019-05-17T08:57:15.303Z,10.83
2019-05-17T08:58:21.554Z,11.43
2019-05-17T08:59:29.636Z,10.40
2019-05-17T09:00:35.146Z,10.93
2019-05-17T09:01:41.705Z,10.93
2019-05-17T09:02:49.831Z,10.40
2019-05-17T09:03:54.799Z,10.87
2019-05-17T09:05:00.639Z,12.07
2019-05-17T09:06:06.550Z,10.63
2019-05-17T09:07:11.856Z,11.63
2019-05-17T09:08:17.678Z,11.80
2019-05-17T09:09:23.009Z,11.20
2019-05-17T09:10:29.942Z,10.53
2019-05-17T09:11:35.478Z,11.50
2019-05-17T09:12:41.294Z,11.37
2019-05-17T09:13:57.258Z,11.77
2019-05-17T09:14:54.040Z,11.03
2019-05-17T09:16:00.356Z,11.07
2019-05-17T09:17:06.374Z,12.13
2019-05-17T09:18:11.667Z,11.80
2019-05-17T09:19:19.332Z,10.80
2019-05-17T09:20:24.316Z,11.80
2019-05-17T09:21:31.498Z,11.27
2019-05-17T09:22:39.576Z,11.30
2019-05-17T09:23:45.704Z,10.93
2019-05-17T09:24:50.988Z,10.93
2019-05-17T09:25:59.363Z,11.87
2019-05-17T09:27:03.775Z,12.23
2019-05-17T09:28:10.392Z,12.57
2019-05-17T09:29:15.771Z,12.10
2019-05-17T09:30:25.561Z,12.17
2019-05-17T09:31:32.344Z,12.47
2019-05-17T09:32:40.383Z,12.10
2019-05-17T09:33:45.159Z,12.97
2019-05-17T09:34:51.031Z,11.63
2019-05-17T09:35:56.254Z,12.47
2019-05-17T09:37:02.103Z,12.40
2019-05-17T09:38:09.840Z,11.47
2019-05-17T09:39:14.933Z,11.40
2019-05-17T09:40:20.267Z,11.70
2019-05-17T09:41:26.208Z,12.13
2019-05-17T09:42:31.561Z,11.90
2019-05-17T09:43:40.070Z,12.10
2019-05-17T09:44:44.395Z,11.23
2019-05-17T09:45:51.008Z,11.70
2019-05-17T09:46:56.428Z,11.50
2019-05-17T09:48:02.309Z,11.40
2019-05-17T09:49:10.190Z,11.90
2019-05-17T09:50:15.148Z,11.47
2019-05-17T09:51:20.579Z,12.07
2019-05-17T09:52:26.425Z,11.93
2019-05-17T09:53:31.695Z,11.67
2019-05-17T09:54:44.869Z,11.50
2019-05-17T09:55:45.194Z,11.70
2019-05-17T09:56:50.986Z,11.77
2019-05-17T09:57:56.199Z,11.93
2019-05-17T09:59:02.542Z,12.80
2019-05-17T10:00:09.923Z,11.10
2019-05-17T10:01:16.069Z,11.03
2019-05-17T10:02:21.329Z,12.33
2019-05-17T10:03:27.118Z,11.73
2019-05-17T10:04:35.459Z,12.93
2019-05-17T10:05:41.296Z,12.90
2019-05-17T10:06:46.618Z,13.43
2019-05-17T10:07:52.466Z,13.23
2019-05-17T10:09:00.047Z,13.50
2019-05-17T10:10:05.601Z,12.90
2019-05-17T10:11:12.187Z,12.27
2019-05-17T10:12:20.188Z,13.37
2019-05-17T10:13:25.007Z,13.43
2019-05-17T10:14:31.355Z,14.23
2019-05-17T10:15:36.872Z,13.27
2019-05-17T10:16:42.692Z,13.17
2019-05-17T10:17:47.924Z,12.50
2019-05-17T10:18:53.623Z,12.70
2019-05-17T10:19:59.911Z,12.87
2019-05-17T10:21:06.935Z,12.10
2019-05-17T10:22:12.166Z,12.97
2019-05-17T10:23:19.708Z,12.70
2019-05-17T10:24:36.037Z,12.43
2019-05-17T10:25:32.261Z,12.97
2019-05-17T10:26:37.475Z,12.40
2019-05-17T10:27:43.311Z,12.37
2019-05-17T10:28:48.615Z,12.23
2019-05-17T10:29:54.435Z,12.43
2019-05-17T10:31:02.323Z,11.90
2019-05-17T10:32:07.294Z,11.90
2019-05-17T10:33:12.630Z,11.27
2019-05-17T10:34:20.297Z,12.10
2019-05-17T10:35:25.324Z,11.63
2019-05-17T10:36:31.177Z,11.57
2019-05-17T10:37:36.364Z,10.70
2019-05-17T10:38:42.227Z,10.97
2019-05-17T10:39:50.078Z,10.90
2019-05-17T10:40:55.956Z,10.80
2019-05-17T10:42:01.192Z,9.93
2019-05-17T10:43:07.012Z,10.47
2019-05-17T10:44:12.315Z,10.07
2019-05-17T10:45:19.864Z,10.80
2019-05-17T10:46:26.276Z,10.90
2019-05-17T10:47:32.071Z,9.73
2019-05-17T10:48:37.377Z,10.17
2019-05-17T10:49:43.291Z,9.97
2019-05-17T10:50:49.636Z,11.60
2019-05-17T10:51:55.865Z,10.37
2019-05-17T10:53:01.068Z,11.87
2019-05-17T10:54:09.439Z,11.40
2019-05-17T10:55:13.859Z,12.30
2019-05-17T10:56:23.218Z,11.33
2019-05-17T10:57:26.614Z,12.57
2019-05-17T10:58:32.577Z,11.83
2019-05-17T10:59:37.758Z,11.80
2019-05-17T11:00:43.897Z,12.10
2019-05-17T11:01:50.144Z,11.70
2019-05-17T11:02:57.274Z,11.67
2019-05-17T11:04:02.495Z,12.43
2019-05-17T11:05:10.483Z,11.60
2019-05-17T11:06:15.251Z,11.57
2019-05-17T11:07:21.030Z,11.97
2019-05-17T11:08:26.249Z,12.33
2019-05-17T11:09:32.147Z,13.50
2019-05-17T11:10:40.424Z,12.47
2019-05-17T11:11:46.392Z,13.10
2019-05-17T11:12:51.569Z,12.17
2019-05-17T11:13:58.383Z,11.53
2019-05-17T11:15:11.129Z,13.10
2019-05-17T11:16:11.334Z,12.73
2019-05-17T11:17:16.634Z,12.40
2019-05-17T11:18:22.409Z,14.00
2019-05-17T11:19:27.715Z,11.87
2019-05-17T11:20:33.556Z,12.27
2019-05-17T11:21:38.836Z,12.73
2019-05-17T11:22:44.791Z,11.93
2019-05-17T11:23:50.063Z,11.83
2019-05-17T11:24:55.890Z,11.17
2019-05-17T11:26:01.064Z,12.57
2019-05-17T11:27:08.434Z,12.03
2019-05-17T11:28:13.710Z,11.17
2019-05-17T11:29:19.506Z,11.83
2019-05-17T11:30:24.700Z,13.47
2019-05-17T11:31:30.578Z,12.87
2019-05-17T11:32:35.759Z,13.13
2019-05-17T11:33:41.599Z,13.57
2019-05-17T11:34:47.016Z,13.87
2019-05-17T11:35:53.231Z,13.20
2019-05-17T11:36:58.508Z,13.97
2019-05-17T11:38:13.545Z,13.57
2019-05-17T11:39:24.465Z,13.77
2019-05-17T11:40:35.124Z,13.70
2019-05-17T11:41:45.062Z,14.23
2019-05-17T11:42:53.591Z,14.00
2019-05-17T11:43:58.881Z,12.37
2019-05-17T11:45:04.868Z,12.23
2019-05-17T11:46:10.153Z,12.67
2019-05-17T11:47:18.687Z,12.83
2019-05-17T11:48:24.011Z,12.80
2019-05-17T11:49:29.749Z,13.63
2019-05-17T11:50:35.008Z,13.27
2019-05-17T11:51:40.845Z,13.43
2019-05-17T11:52:46.307Z,12.77
2019-05-17T11:53:52.009Z,12.97
2019-05-17T11:54:57.232Z,12.10
2019-05-17T11:56:02.994Z,12.80
2019-05-17T11:57:08.305Z,12.63
2019-05-17T11:58:14.044Z,12.40
2019-05-17T11:59:19.297Z,12.57
2019-05-17T12:00:25.550Z,12.67
2019-05-17T12:01:30.828Z,12.30
2019-05-17T12:02:36.662Z,13.50
2019-05-17T12:03:41.908Z,12.93
2019-05-17T12:04:47.699Z,12.80
2019-05-17T12:05:52.912Z,13.70
2019-05-17T12:06:58.745Z,12.47
2019-05-17T12:08:03.973Z,12.43
2019-05-17T12:09:09.808Z,12.40
2019-05-17T12:10:15.150Z,11.97
2019-05-17T12:11:21.145Z,12.20
2019-05-17T12:12:26.480Z,12.47
2019-05-17T12:13:32.386Z,12.40
2019-05-17T12:14:37.651Z,12.50
2019-05-17T12:15:45.359Z,12.40
2019-05-17T12:16:50.399Z,12.77
2019-05-17T12:17:56.158Z,12.33
2019-05-17T12:19:01.328Z,11.00
2019-05-17T12:20:08.464Z,11.30
2019-05-17T12:21:13.694Z,12.10
2019-05-17T12:22:19.533Z,12.00
2019-05-17T12:23:24.839Z,12.33
2019-05-17T12:24:30.530Z,11.33
2019-05-17T12:25:35.798Z,11.70
2019-05-17T12:26:41.622Z,11.20
2019-05-17T12:27:47.367Z,12.20
2019-05-17T12:28:53.093Z,13.07
2019-05-17T12:29:58.205Z,12.50
2019-05-17T12:31:03.926Z,11.97
2019-05-17T12:32:09.167Z,11.20
2019-05-17T12:33:14.912Z,10.97
2019-05-17T12:34:20.103Z,11.90
2019-05-17T12:35:26.963Z,11.53
2019-05-17T12:36:32.246Z,11.17
2019-05-17T12:37:38.022Z,11.03
2019-05-17T12:38:43.212Z,10.17
2019-05-17T12:39:49.116Z,10.20
2019-05-17T12:40:54.415Z,9.80
2019-05-17T12:42:00.412Z,10.20
2019-05-17T12:43:05.596Z,9.97
2019-05-17T12:44:11.492Z,9.90
2019-05-17T12:45:16.871Z,10.83
2019-05-17T12:46:22.643Z,9.53
2019-05-17T12:47:28.012Z,9.93
2019-05-17T12:48:33.789Z,9.23
2019-05-17T12:49:38.926Z,9.93
2019-05-17T12:50:44.858Z,9.90
2019-05-17T12:51:50.150Z,9.23
2019-05-17T12:52:55.994Z,9.73
2019-05-17T12:54:01.240Z,9.87
2019-05-17T12:55:09.305Z,10.77
2019-05-17T12:56:17.597Z,10.57
2019-05-17T12:57:23.414Z,10.03
2019-05-17T12:58:28.743Z,10.77
2019-05-17T12:59:34.561Z,10.40
2019-05-17T13:00:39.778Z,11.00
2019-05-17T13:01:45.644Z,11.57
2019-05-17T13:02:51.034Z,11.23
2019-05-17T13:03:57.054Z,11.80
2019-05-17T13:05:02.369Z,12.53
2019-05-17T13:06:08.234Z,11.20
2019-05-17T13:07:13.542Z,12.20
2019-05-17T13:08:19.385Z,11.23
2019-05-17T13:09:24.651Z,11.50
2019-05-17T13:10:30.464Z,11.50
2019-05-17T13:11:35.635Z,11.43
2019-05-17T13:12:41.397Z,10.83
2019-05-17T13:13:46.559Z,10.43
2019-05-17T13:14:52.375Z,12.13
2019-05-17T13:15:57.654Z,11.63
2019-05-17T13:17:03.419Z,11.50
2019-05-17T13:18:08.657Z,12.13
2019-05-17T13:19:14.495Z,11.37
2019-05-17T13:20:21.066Z,10.43
2019-05-17T13:21:26.898Z,10.53
2019-05-17T13:22:32.114Z,10.67
2019-05-17T13:23:38.006Z,11.10
2019-05-17T13:24:43.178Z,11.10
2019-05-17T13:25:49.013Z,10.40
2019-05-17T13:26:54.271Z,11.07
2019-05-17T13:28:00.090Z,10.47
2019-05-17T13:29:05.269Z,10.07
2019-05-17T13:30:11.750Z,10.63
2019-05-17T13:31:17.002Z,10.13
2019-05-17T13:32:22.872Z,10.33
2019-05-17T13:33:29.286Z,9.80
2019-05-17T13:34:35.486Z,10.43
2019-05-17T13:35:40.826Z,9.90
2019-05-17T13:36:46.672Z,9.73
2019-05-17T13:37:51.981Z,9.80
2019-05-17T13:38:57.791Z,10.37
2019-05-17T13:40:03.087Z,10.27
2019-05-17T13:41:09.049Z,8.93
2019-05-17T13:42:14.792Z,10.43
2019-05-17T13:43:20.706Z,9.87
2019-05-17T13:44:26.236Z,10.33
2019-05-17T13:45:32.206Z,9.90
2019-05-17T13:46:37.485Z,10.90
2019-05-17T13:47:43.404Z,10.17
2019-05-17T13:48:48.696Z,10.13
2019-05-17T13:49:54.650Z,9.83
2019-05-17T13:50:59.995Z,9.43
2019-05-17T13:52:06.052Z,8.90
2019-05-17T13:53:11.340Z,9.90
2019-05-17T13:54:17.211Z,9.80
2019-05-17T13:55:22.482Z,9.40
2019-05-17T13:56:28.395Z,9.13
2019-05-17T13:57:33.587Z,9.63
2019-05-17T13:58:39.422Z,7.33
2019-05-17T13:59:44.710Z,6.70
2019-05-17T14:00:50.644Z,7.60
2019-05-17T14:01:55.927Z,7.17
2019-05-17T14:03:01.831Z,6.30
2019-05-17T14:04:07.194Z,7.07
2019-05-17T14:05:13.588Z,6.97
2019-05-17T14:06:18.834Z,7.03
2019-05-17T14:07:24.618Z,7.40
2019-05-17T14:08:29.866Z,8.13
2019-05-17T14:09:35.693Z,7.40
2019-05-17T14:10:40.909Z,8.10
2019-05-17T14:11:46.767Z,8.63
2019-05-17T14:12:54.402Z,8.77
2019-05-17T14:14:00.347Z,8.30
2019-05-17T14:15:07.431Z,8.13